Aviation Digital Data Service (ADDS)

Output produced by METARs form (1908 UTC 27 March 2015)
found at http://aviationweather.gov/adds/metars/
 
KEWR 271745Z 2718/2824 33008KT P6SM FEW025 BKN030 
     FM272100 33006KT P6SM VCSH BKN025 
     FM280200 34008KT P6SM BKN040 
     FM280600 34011KT P6SM BKN120 
     FM280800 34015G22KT P6SM BKN120 
     FM281000 34016G23KT P6SM VCSH BKN030 
     FM281600 32015G21KT P6SM BKN035